sensor_id;sensor_type;location;lat;lon;timestamp;pressure;altitude;pressure_sealevel;temperature;humidity
34506;BME280;20748;42.632;23.198;2023-02-11T00:00:20;93473.97;;;-5.07;65.33
34506;BME280;20748;42.632;23.198;2023-02-11T00:02:53;93459.97;;;-5.11;65.26
34506;BME280;20748;42.632;23.198;2023-02-11T00:05:26;93467.59;;;-5.11;65.29
34506;BME280;20748;42.632;23.198;2023-02-11T00:07:58;93471.72;;;-5.10;65.50
34506;BME280;20748;42.632;23.198;2023-02-11T00:10:31;93467.31;;;-5.16;65.09
34506;BME280;20748;42.632;23.198;2023-02-11T00:13:03;93469.84;;;-5.16;64.93
34506;BME280;20748;42.632;23.198;2023-02-11T00:15:36;93467.97;;;-5.22;65.94
34506;BME280;20748;42.632;23.198;2023-02-11T00:18:09;93473.41;;;-5.26;67.11
34506;BME280;20748;42.632;23.198;2023-02-11T00:20:41;93475.28;;;-5.28;66.38
34506;BME280;20748;42.632;23.198;2023-02-11T00:23:14;93479.41;;;-5.27;65.93
34506;BME280;20748;42.632;23.198;2023-02-11T00:25:47;93476.91;;;-5.35;66.15
34506;BME280;20748;42.632;23.198;2023-02-11T00:28:19;93473.91;;;-5.47;66.33
34506;BME280;20748;42.632;23.198;2023-02-11T00:30:53;93483.19;;;-5.79;66.65
34506;BME280;20748;42.632;23.198;2023-02-11T00:33:27;93483.19;;;-5.96;66.71
34506;BME280;20748;42.632;23.198;2023-02-11T00:36:03;93471.59;;;-5.98;67.70
34506;BME280;20748;42.632;23.198;2023-02-11T00:38:35;93487.16;;;-5.93;67.27
34506;BME280;20748;42.632;23.198;2023-02-11T00:41:07;93474.28;;;-6.00;68.09
34506;BME280;20748;42.632;23.198;2023-02-11T00:43:40;93467.06;;;-6.11;66.98
34506;BME280;20748;42.632;23.198;2023-02-11T00:46:13;93459.41;;;-6.28;67.80
34506;BME280;20748;42.632;23.198;2023-02-11T00:48:47;93461.16;;;-6.20;67.70
34506;BME280;20748;42.632;23.198;2023-02-11T00:51:19;93460.53;;;-6.30;66.99
34506;BME280;20748;42.632;23.198;2023-02-11T00:53:52;93456.53;;;-6.41;68.20
34506;BME280;20748;42.632;23.198;2023-02-11T00:56:25;93453.69;;;-6.38;68.67
34506;BME280;20748;42.632;23.198;2023-02-11T00:58:57;93458.94;;;-6.31;68.86
34506;BME280;20748;42.632;23.198;2023-02-11T01:01:30;93454.50;;;-6.29;69.16
34506;BME280;20748;42.632;23.198;2023-02-11T01:04:03;93456.72;;;-6.18;69.23
34506;BME280;20748;42.632;23.198;2023-02-11T01:06:36;93453.34;;;-6.02;68.94
34506;BME280;20748;42.632;23.198;2023-02-11T01:09:10;93450.97;;;-5.95;68.35
34506;BME280;20748;42.632;23.198;2023-02-11T01:11:42;93452.22;;;-5.83;67.42
34506;BME280;20748;42.632;23.198;2023-02-11T01:14:16;93461.94;;;-6.20;68.10
34506;BME280;20748;42.632;23.198;2023-02-11T01:16:48;93457.03;;;-6.04;68.11
34506;BME280;20748;42.632;23.198;2023-02-11T01:19:21;93450.63;;;-5.92;68.14
34506;BME280;20748;42.632;23.198;2023-02-11T01:21:54;93447.47;;;-5.94;67.30
34506;BME280;20748;42.632;23.198;2023-02-11T01:24:26;93442.69;;;-5.97;66.86
34506;BME280;20748;42.632;23.198;2023-02-11T01:26:59;93447.50;;;-6.02;68.10
34506;BME280;20748;42.632;23.198;2023-02-11T01:29:31;93447.94;;;-5.99;68.13
34506;BME280;20748;42.632;23.198;2023-02-11T01:32:04;93443.81;;;-5.91;68.17
34506;BME280;20748;42.632;23.198;2023-02-11T01:34:37;93445.72;;;-5.94;68.16
34506;BME280;20748;42.632;23.198;2023-02-11T01:37:10;93438.56;;;-5.90;67.88
34506;BME280;20748;42.632;23.198;2023-02-11T01:39:42;93440.31;;;-5.90;68.67
34506;BME280;20748;42.632;23.198;2023-02-11T01:42:19;93441.09;;;-5.82;67.56
34506;BME280;20748;42.632;23.198;2023-02-11T01:44:53;93431.53;;;-5.80;67.18
34506;BME280;20748;42.632;23.198;2023-02-11T01:47:26;93436.63;;;-5.80;67.19
34506;BME280;20748;42.632;23.198;2023-02-11T01:50:00;93427.41;;;-5.81;66.57
34506;BME280;20748;42.632;23.198;2023-02-11T01:52:36;93435.56;;;-6.02;66.70
34506;BME280;20748;42.632;23.198;2023-02-11T01:55:12;93433.94;;;-5.95;66.02
34506;BME280;20748;42.632;23.198;2023-02-11T01:58:04;93433.94;;;-5.95;66.65
34506;BME280;20748;42.632;23.198;2023-02-11T02:00:38;93426.66;;;-5.98;66.58
34506;BME280;20748;42.632;23.198;2023-02-11T02:03:15;93431.25;;;-5.93;66.82
34506;BME280;20748;42.632;23.198;2023-02-11T02:05:53;93431.41;;;-5.95;65.45
34506;BME280;20748;42.632;23.198;2023-02-11T02:08:29;93424.78;;;-6.04;66.81
34506;BME280;20748;42.632;23.198;2023-02-11T02:11:03;93425.56;;;-6.03;66.43
34506;BME280;20748;42.632;23.198;2023-02-11T02:13:35;93430.66;;;-6.12;67.27
34506;BME280;20748;42.632;23.198;2023-02-11T02:16:12;93439.72;;;-6.17;67.53
34506;BME280;20748;42.632;23.198;2023-02-11T02:18:53;93430.66;;;-6.12;67.13
34506;BME280;20748;42.632;23.198;2023-02-11T02:24:56;93440.50;;;-6.17;67.04
34506;BME280;20748;42.632;23.198;2023-02-11T02:27:49;93432.59;;;-6.30;66.80
34506;BME280;20748;42.632;23.198;2023-02-11T02:30:44;93418.59;;;-6.35;65.85
34506;BME280;20748;42.632;23.198;2023-02-11T02:33:32;93438.13;;;-6.52;66.06
34506;BME280;20748;42.632;23.198;2023-02-11T02:36:13;93437.47;;;-6.54;66.57
34506;BME280;20748;42.632;23.198;2023-02-11T02:38:53;93437.31;;;-6.52;66.43
34506;BME280;20748;42.632;23.198;2023-02-11T02:41:29;93435.09;;;-6.72;66.13
34506;BME280;20748;42.632;23.198;2023-02-11T02:44:02;93423.03;;;-6.78;66.55
34506;BME280;20748;42.632;23.198;2023-02-11T02:46:36;93438.25;;;-6.70;66.66
34506;BME280;20748;42.632;23.198;2023-02-11T02:49:11;93428.06;;;-6.87;66.66
34506;BME280;20748;42.632;23.198;2023-02-11T02:55:19;93435.34;;;-7.00;67.81
34506;BME280;20748;42.632;23.198;2023-02-11T02:58:04;93422.16;;;-7.12;68.27
34506;BME280;20748;42.632;23.198;2023-02-11T03:00:45;93431.38;;;-7.03;68.93
34506;BME280;20748;42.632;23.198;2023-02-11T03:03:28;93427.84;;;-7.10;68.11
34506;BME280;20748;42.632;23.198;2023-02-11T03:06:09;93427.72;;;-7.08;67.82
34506;BME280;20748;42.632;23.198;2023-02-11T03:08:46;93420.09;;;-7.08;68.15
34506;BME280;20748;42.632;23.198;2023-02-11T03:11:21;93425.91;;;-7.24;67.53
34506;BME280;20748;42.632;23.198;2023-02-11T03:13:55;93419.56;;;-7.29;68.25
34506;BME280;20748;42.632;23.198;2023-02-11T03:16:29;93421.28;;;-7.29;68.25
34506;BME280;20748;42.632;23.198;2023-02-11T03:19:10;93428.22;;;-7.39;68.64
34506;BME280;20748;42.632;23.198;2023-02-11T03:21:45;93424.44;;;-7.35;69.55
34506;BME280;20748;42.632;23.198;2023-02-11T03:24:22;93427.94;;;-7.36;69.26
34506;BME280;20748;42.632;23.198;2023-02-11T03:27:01;93426.97;;;-7.35;69.29
34506;BME280;20748;42.632;23.198;2023-02-11T03:29:39;93425.59;;;-7.30;68.78
34506;BME280;20748;42.632;23.198;2023-02-11T03:32:19;93427.66;;;-7.25;68.60
34506;BME280;20748;42.632;23.198;2023-02-11T03:34:56;93424.03;;;-7.22;68.71
34506;BME280;20748;42.632;23.198;2023-02-11T03:37:34;93431.00;;;-7.16;69.18
34506;BME280;20748;42.632;23.198;2023-02-11T03:40:10;93425.78;;;-7.15;68.78
34506;BME280;20748;42.632;23.198;2023-02-11T03:42:48;93422.63;;;-7.08;68.72
34506;BME280;20748;42.632;23.198;2023-02-11T03:45:23;93429.44;;;-7.17;68.99
34506;BME280;20748;42.632;23.198;2023-02-11T03:47:59;93428.16;;;-7.13;68.85
34506;BME280;20748;42.632;23.198;2023-02-11T03:50:32;93425.28;;;-7.18;68.95
34506;BME280;20748;42.632;23.198;2023-02-11T03:53:08;93424.16;;;-7.24;68.19
34506;BME280;20748;42.632;23.198;2023-02-11T03:55:42;93418.63;;;-7.19;67.48
34506;BME280;20748;42.632;23.198;2023-02-11T03:58:15;93413.22;;;-7.24;67.26
34506;BME280;20748;42.632;23.198;2023-02-11T04:00:48;93419.91;;;-7.23;67.09
34506;BME280;20748;42.632;23.198;2023-02-11T04:03:20;93422.25;;;-7.30;67.15
34506;BME280;20748;42.632;23.198;2023-02-11T04:05:53;93416.53;;;-7.32;67.10
34506;BME280;20748;42.632;23.198;2023-02-11T04:08:26;93409.69;;;-7.40;67.30
34506;BME280;20748;42.632;23.198;2023-02-11T04:10:58;93415.38;;;-7.46;67.69
34506;BME280;20748;42.632;23.198;2023-02-11T04:13:31;93416.59;;;-7.59;67.54
34506;BME280;20748;42.632;23.198;2023-02-11T04:16:03;93409.25;;;-7.70;68.03
34506;BME280;20748;42.632;23.198;2023-02-11T04:18:36;93412.28;;;-7.93;68.51
34506;BME280;20748;42.632;23.198;2023-02-11T04:21:09;93416.41;;;-7.92;69.21
34506;BME280;20748;42.632;23.198;2023-02-11T04:23:42;93413.41;;;-7.87;69.10
34506;BME280;20748;42.632;23.198;2023-02-11T04:26:14;93409.00;;;-7.85;68.25
34506;BME280;20748;42.632;23.198;2023-02-11T04:28:47;93414.22;;;-7.87;68.24
34506;BME280;20748;42.632;23.198;2023-02-11T04:31:19;93406.13;;;-7.90;68.90
34506;BME280;20748;42.632;23.198;2023-02-11T04:33:52;93411.56;;;-7.85;68.15
34506;BME280;20748;42.632;23.198;2023-02-11T04:36:24;93413.88;;;-7.92;69.27
34506;BME280;20748;42.632;23.198;2023-02-11T04:38:57;93407.88;;;-7.91;68.34
34506;BME280;20748;42.632;23.198;2023-02-11T04:41:30;93396.53;;;-8.05;68.79
34506;BME280;20748;42.632;23.198;2023-02-11T04:44:03;93400.66;;;-8.04;69.83
34506;BME280;20748;42.632;23.198;2023-02-11T04:46:35;93401.34;;;-7.93;69.80
34506;BME280;20748;42.632;23.198;2023-02-11T04:49:09;93392.78;;;-8.01;69.52
34506;BME280;20748;42.632;23.198;2023-02-11T04:51:44;93398.69;;;-8.18;69.35
34506;BME280;20748;42.632;23.198;2023-02-11T04:54:21;93395.34;;;-8.19;69.34
34506;BME280;20748;42.632;23.198;2023-02-11T04:56:53;93405.81;;;-8.14;70.03
34506;BME280;20748;42.632;23.198;2023-02-11T04:59:26;93405.19;;;-8.16;69.69
34506;BME280;20748;42.632;23.198;2023-02-11T05:01:58;93390.44;;;-8.20;69.53
34506;BME280;20748;42.632;23.198;2023-02-11T05:04:31;93395.88;;;-8.15;69.90
34506;BME280;20748;42.632;23.198;2023-02-11T05:07:03;93397.44;;;-8.14;69.48
34506;BME280;20748;42.632;23.198;2023-02-11T05:09:36;93394.91;;;-8.14;68.57
34506;BME280;20748;42.632;23.198;2023-02-11T05:12:09;93391.44;;;-8.13;68.45
34506;BME280;20748;42.632;23.198;2023-02-11T05:14:41;93382.41;;;-8.34;69.10
34506;BME280;20748;42.632;23.198;2023-02-11T05:17:13;93383.75;;;-8.22;68.68
34506;BME280;20748;42.632;23.198;2023-02-11T05:19:46;93378.22;;;-8.25;69.53
34506;BME280;20748;42.632;23.198;2023-02-11T05:22:18;93378.22;;;-8.25;69.45
34506;BME280;20748;42.632;23.198;2023-02-11T05:24:53;93388.06;;;-8.22;68.30
34506;BME280;20748;42.632;23.198;2023-02-11T05:27:25;93380.91;;;-8.27;68.62
34506;BME280;20748;42.632;23.198;2023-02-11T05:29:58;93395.94;;;-8.25;67.88
34506;BME280;20748;42.632;23.198;2023-02-11T05:32:31;93383.09;;;-8.32;68.94
34506;BME280;20748;42.632;23.198;2023-02-11T05:35:04;93386.56;;;-8.33;69.56
34506;BME280;20748;42.632;23.198;2023-02-11T05:37:36;93378.66;;;-8.30;69.45
34506;BME280;20748;42.632;23.198;2023-02-11T05:40:10;93373.25;;;-8.35;70.08
34506;BME280;20748;42.632;23.198;2023-02-11T05:42:43;93379.81;;;-8.24;69.41
34506;BME280;20748;42.632;23.198;2023-02-11T05:45:15;93387.34;;;-8.32;69.75
34506;BME280;20748;42.632;23.198;2023-02-11T05:47:48;93382.78;;;-8.29;68.93
34506;BME280;20748;42.632;23.198;2023-02-11T05:50:20;93384.31;;;-8.36;68.68
34506;BME280;20748;42.632;23.198;2023-02-11T05:52:56;93384.19;;;-8.34;68.83
34506;BME280;20748;42.632;23.198;2023-02-11T05:55:30;93369.50;;;-8.49;69.07
34506;BME280;20748;42.632;23.198;2023-02-11T05:58:02;93387.78;;;-8.37;69.20
34506;BME280;20748;42.632;23.198;2023-02-11T06:00:35;93389.38;;;-8.36;69.08
34506;BME280;20748;42.632;23.198;2023-02-11T06:03:08;93384.94;;;-8.34;69.95
34506;BME280;20748;42.632;23.198;2023-02-11T06:05:41;93361.81;;;-8.39;68.76
34506;BME280;20748;42.632;23.198;2023-02-11T06:08:15;93391.69;;;-8.25;69.75
34506;BME280;20748;42.632;23.198;2023-02-11T06:10:48;93392.97;;;-8.20;69.54
34506;BME280;20748;42.632;23.198;2023-02-11T06:13:20;93394.25;;;-8.16;69.70
34506;BME280;20748;42.632;23.198;2023-02-11T06:15:56;93398.69;;;-8.18;69.65
34506;BME280;20748;42.632;23.198;2023-02-11T06:18:29;93393.97;;;-8.13;69.75
34506;BME280;20748;42.632;23.198;2023-02-11T06:21:06;93394.81;;;-8.04;68.57
34506;BME280;20748;42.632;23.198;2023-02-11T06:23:38;93398.56;;;-8.09;68.28
34506;BME280;20748;42.632;23.198;2023-02-11T06:26:17;93391.94;;;-8.10;67.44
34506;BME280;20748;42.632;23.198;2023-02-11T06:28:50;93398.88;;;-8.12;67.34
34506;BME280;20748;42.632;23.198;2023-02-11T06:31:22;93395.56;;;-8.12;67.17
34506;BME280;20748;42.632;23.198;2023-02-11T06:33:55;93393.16;;;-8.14;68.11
34506;BME280;20748;42.632;23.198;2023-02-11T06:36:27;93387.66;;;-8.09;67.73
34506;BME280;20748;42.632;23.198;2023-02-11T06:39:00;93384.69;;;-8.04;68.31
34506;BME280;20748;42.632;23.198;2023-02-11T06:41:34;93393.38;;;-8.07;69.00
34506;BME280;20748;42.632;23.198;2023-02-11T06:44:06;93393.84;;;-8.03;68.89
34506;BME280;20748;42.632;23.198;2023-02-11T06:46:38;93401.50;;;-7.95;69.93
34506;BME280;20748;42.632;23.198;2023-02-11T06:49:11;93395.81;;;-7.89;70.17
34506;BME280;20748;42.632;23.198;2023-02-11T06:51:44;93403.00;;;-7.84;70.17
34506;BME280;20748;42.632;23.198;2023-02-11T06:54:16;93400.97;;;-7.72;70.43
34506;BME280;20748;42.632;23.198;2023-02-11T06:56:49;93394.22;;;-7.63;69.97
34506;BME280;20748;42.632;23.198;2023-02-11T06:59:22;93401.69;;;-7.53;70.16
34506;BME280;20748;42.632;23.198;2023-02-11T07:01:54;93399.22;;;-7.45;69.55
34506;BME280;20748;42.632;23.198;2023-02-11T07:04:27;93401.94;;;-7.38;69.17
34506;BME280;20748;42.632;23.198;2023-02-11T07:06:59;93400.66;;;-7.34;69.18
34506;BME280;20748;42.632;23.198;2023-02-11T07:09:32;93397.84;;;-7.23;68.75
34506;BME280;20748;42.632;23.198;2023-02-11T07:12:07;93399.97;;;-7.02;68.29
34506;BME280;20748;42.632;23.198;2023-02-11T07:14:40;93398.88;;;-6.82;67.32
34506;BME280;20748;42.632;23.198;2023-02-11T07:17:12;93399.88;;;-6.67;66.89
34506;BME280;20748;42.632;23.198;2023-02-11T07:19:45;93393.19;;;-6.51;66.63
34506;BME280;20748;42.632;23.198;2023-02-11T07:22:17;93394.78;;;-6.42;66.90
34506;BME280;20748;42.632;23.198;2023-02-11T07:24:50;93392.72;;;-6.30;66.56
34506;BME280;20748;42.632;23.198;2023-02-11T07:27:23;93386.38;;;-6.26;66.71
34506;BME280;20748;42.632;23.198;2023-02-11T07:29:55;93386.22;;;-6.24;66.94
34506;BME280;20748;42.632;23.198;2023-02-11T07:32:28;93386.81;;;-6.05;66.75
34506;BME280;20748;42.632;23.198;2023-02-11T07:35:00;93385.00;;;-5.88;67.22
34506;BME280;20748;42.632;23.198;2023-02-11T07:37:33;93378.78;;;-5.77;66.55
34506;BME280;20748;42.632;23.198;2023-02-11T07:40:06;93376.22;;;-5.61;65.84
34506;BME280;20748;42.632;23.198;2023-02-11T07:42:40;93366.13;;;-5.46;65.71
34506;BME280;20748;42.632;23.198;2023-02-11T07:45:12;93373.66;;;-5.29;66.04
34506;BME280;20748;42.632;23.198;2023-02-11T07:47:44;93365.34;;;-5.15;62.73
34506;BME280;20748;42.632;23.198;2023-02-11T07:50:17;93368.78;;;-4.99;64.02
34506;BME280;20748;42.632;23.198;2023-02-11T07:52:50;93366.44;;;-4.86;62.90
34506;BME280;20748;42.632;23.198;2023-02-11T07:55:22;93363.97;;;-4.70;63.21
34506;BME280;20748;42.632;23.198;2023-02-11T07:57:55;93359.00;;;-4.64;62.32
34506;BME280;20748;42.632;23.198;2023-02-11T08:00:27;93361.09;;;-4.52;60.33
34506;BME280;20748;42.632;23.198;2023-02-11T08:03:00;93360.34;;;-4.53;56.59
34506;BME280;20748;42.632;23.198;2023-02-11T08:05:32;93363.31;;;-4.49;54.99
34506;BME280;20748;42.632;23.198;2023-02-11T08:08:05;93365.34;;;-4.45;54.99
34506;BME280;20748;42.632;23.198;2023-02-11T08:10:37;93363.56;;;-4.21;54.84
34506;BME280;20748;42.632;23.198;2023-02-11T08:13:10;93361.94;;;-4.13;53.66
34506;BME280;20748;42.632;23.198;2023-02-11T08:15:44;93345.91;;;-4.22;53.39
34506;BME280;20748;42.632;23.198;2023-02-11T08:18:16;93358.84;;;-3.94;53.58
34506;BME280;20748;42.632;23.198;2023-02-11T08:20:48;93359.91;;;-3.88;52.19
34506;BME280;20748;42.632;23.198;2023-02-11T08:23:21;93366.34;;;-3.92;52.49
34506;BME280;20748;42.632;23.198;2023-02-11T08:25:54;93356.16;;;-3.92;52.12
34506;BME280;20748;42.632;23.198;2023-02-11T08:28:27;93361.06;;;-3.75;53.33
34506;BME280;20748;42.632;23.198;2023-02-11T08:31:04;93360.88;;;-3.74;52.47
34506;BME280;20748;42.632;23.198;2023-02-11T08:33:37;93357.97;;;-3.56;53.14
34506;BME280;20748;42.632;23.198;2023-02-11T08:36:13;93369.06;;;-3.48;51.85
34506;BME280;20748;42.632;23.198;2023-02-11T08:38:46;93357.88;;;-3.47;52.85
34506;BME280;20748;42.632;23.198;2023-02-11T08:41:19;93365.09;;;-3.36;52.62
34506;BME280;20748;42.632;23.198;2023-02-11T08:43:52;93363.22;;;-3.27;52.96
34506;BME280;20748;42.632;23.198;2023-02-11T08:46:25;93347.25;;;-3.51;52.23
34506;BME280;20748;42.632;23.198;2023-02-11T08:48:57;93364.38;;;-3.30;52.90
34506;BME280;20748;42.632;23.198;2023-02-11T08:51:30;93371.00;;;-2.99;52.72
34506;BME280;20748;42.632;23.198;2023-02-11T08:54:03;93362.59;;;-2.77;52.49
34506;BME280;20748;42.632;23.198;2023-02-11T08:56:39;93364.41;;;-2.71;52.23
34506;BME280;20748;42.632;23.198;2023-02-11T08:59:13;93361.97;;;-2.58;53.00
34506;BME280;20748;42.632;23.198;2023-02-11T09:01:46;93372.53;;;-2.61;53.15
34506;BME280;20748;42.632;23.198;2023-02-11T09:04:18;93372.69;;;-2.69;53.91
34506;BME280;20748;42.632;23.198;2023-02-11T09:06:51;93368.16;;;-2.67;54.51
34506;BME280;20748;42.632;23.198;2023-02-11T09:09:23;93369.16;;;-2.46;55.03
34506;BME280;20748;42.632;23.198;2023-02-11T09:11:55;93358.38;;;-2.41;54.50
34506;BME280;20748;42.632;23.198;2023-02-11T09:14:29;93361.47;;;-2.24;54.41
34506;BME280;20748;42.632;23.198;2023-02-11T09:17:01;93358.78;;;-2.16;54.24
34506;BME280;20748;42.632;23.198;2023-02-11T09:19:34;93361.06;;;-1.99;54.17
34506;BME280;20748;42.632;23.198;2023-02-11T09:22:06;93361.53;;;-1.82;53.38
34506;BME280;20748;42.632;23.198;2023-02-11T09:24:39;93352.78;;;-1.66;53.69
34506;BME280;20748;42.632;23.198;2023-02-11T09:27:11;93353.16;;;-1.69;52.74
34506;BME280;20748;42.632;23.198;2023-02-11T09:29:44;93346.94;;;-1.53;53.77
34506;BME280;20748;42.632;23.198;2023-02-11T09:32:17;93349.50;;;-1.53;52.84
34506;BME280;20748;42.632;23.198;2023-02-11T09:34:49;93352.06;;;-1.53;51.88
34506;BME280;20748;42.632;23.198;2023-02-11T09:37:22;93351.06;;;-1.52;52.75
34506;BME280;20748;42.632;23.198;2023-02-11T09:39:54;93337.69;;;-1.54;52.66
34506;BME280;20748;42.632;23.198;2023-02-11T09:42:39;93346.13;;;-1.54;52.62
34506;BME280;20748;42.632;23.198;2023-02-11T09:45:17;93343.88;;;-1.28;53.43
34506;BME280;20748;42.632;23.198;2023-02-11T09:47:55;93339.56;;;-1.28;53.35
34506;BME280;20748;42.632;23.198;2023-02-11T09:50:30;93328.88;;;-1.38;52.48
34506;BME280;20748;42.632;23.198;2023-02-11T09:53:06;93327.13;;;-1.38;53.01
34506;BME280;20748;42.632;23.198;2023-02-11T09:55:45;93322.47;;;-1.14;53.35
34506;BME280;20748;42.632;23.198;2023-02-11T09:58:24;93321.09;;;-1.10;52.58
34506;BME280;20748;42.632;23.198;2023-02-11T10:01:01;93313.84;;;-1.06;52.19
34506;BME280;20748;42.632;23.198;2023-02-11T10:03:50;93298.66;;;-1.08;52.58
34506;BME280;20748;42.632;23.198;2023-02-11T10:06:38;93301.03;;;-0.92;51.93
34506;BME280;20748;42.632;23.198;2023-02-11T10:09:32;93302.59;;;-0.98;52.01
34506;BME280;20748;42.632;23.198;2023-02-11T10:12:21;93298.50;;;-0.79;52.50
34506;BME280;20748;42.632;23.198;2023-02-11T10:15:14;93290.03;;;-0.79;51.66
34506;BME280;20748;42.632;23.198;2023-02-11T10:18:10;93290.81;;;-0.65;51.50
34506;BME280;20748;42.632;23.198;2023-02-11T10:20:48;93289.25;;;-0.73;50.90
34506;BME280;20748;42.632;23.198;2023-02-11T10:23:32;93279.41;;;-0.70;51.37
34506;BME280;20748;42.632;23.198;2023-02-11T10:26:11;93272.09;;;-0.52;50.77
34506;BME280;20748;42.632;23.198;2023-02-11T10:28:45;93265.38;;;-0.40;50.26
34506;BME280;20748;42.632;23.198;2023-02-11T10:31:22;93253.13;;;-0.18;50.81
34506;BME280;20748;42.632;23.198;2023-02-11T10:33:59;93252.53;;;-0.13;48.45
34506;BME280;20748;42.632;23.198;2023-02-11T10:36:35;93247.97;;;-0.11;49.24
34506;BME280;20748;42.632;23.198;2023-02-11T10:39:13;93234.84;;;0.24;49.03
34506;BME280;20748;42.632;23.198;2023-02-11T10:41:50;93233.78;;;0.46;48.60
34506;BME280;20748;42.632;23.198;2023-02-11T10:44:27;93220.84;;;0.66;47.51
34506;BME280;20748;42.632;23.198;2023-02-11T10:47:04;93216.78;;;0.84;46.67
34506;BME280;20748;42.632;23.198;2023-02-11T10:49:42;93210.63;;;0.91;46.51
34506;BME280;20748;42.632;23.198;2023-02-11T10:52:20;93202.44;;;1.01;46.68
34506;BME280;20748;42.632;23.198;2023-02-11T10:54:58;93206.91;;;1.13;46.18
34506;BME280;20748;42.632;23.198;2023-02-11T10:57:34;93207.97;;;1.30;48.07
34506;BME280;20748;42.632;23.198;2023-02-11T11:00:22;93205.03;;;1.27;47.15
34506;BME280;20748;42.632;23.198;2023-02-11T11:02:59;93195.41;;;1.41;46.60
34506;BME280;20748;42.632;23.198;2023-02-11T11:05:36;93196.78;;;1.43;45.45
34506;BME280;20748;42.632;23.198;2023-02-11T11:08:16;93200.13;;;1.44;45.44
34506;BME280;20748;42.632;23.198;2023-02-11T11:11:03;93192.84;;;1.15;45.77
34506;BME280;20748;42.632;23.198;2023-02-11T11:13:36;93184.00;;;1.30;45.05
34506;BME280;20748;42.632;23.198;2023-02-11T11:16:19;93189.13;;;1.37;47.12
34506;BME280;20748;42.632;23.198;2023-02-11T11:19:13;93182.59;;;1.34;47.12
34506;BME280;20748;42.632;23.198;2023-02-11T11:21:47;93189.47;;;1.15;45.79
34506;BME280;20748;42.632;23.198;2023-02-11T11:24:22;93187.22;;;1.25;48.09
34506;BME280;20748;42.632;23.198;2023-02-11T11:27:01;93179.94;;;1.22;47.90
34506;BME280;20748;42.632;23.198;2023-02-11T11:29:36;93181.88;;;1.27;47.45
34506;BME280;20748;42.632;23.198;2023-02-11T11:32:12;93182.53;;;1.22;47.58
34506;BME280;20748;42.632;23.198;2023-02-11T11:34:49;93186.88;;;1.22;47.82
34506;BME280;20748;42.632;23.198;2023-02-11T11:37:25;93177.94;;;1.24;47.96
34506;BME280;20748;42.632;23.198;2023-02-11T11:40:01;93178.00;;;1.17;47.82
34506;BME280;20748;42.632;23.198;2023-02-11T11:42:36;93171.88;;;1.18;48.53
34506;BME280;20748;42.632;23.198;2023-02-11T11:45:21;93163.69;;;1.28;46.61
34506;BME280;20748;42.632;23.198;2023-02-11T11:47:58;93172.00;;;1.24;47.25
34506;BME280;20748;42.632;23.198;2023-02-11T11:50:34;93169.22;;;1.25;47.70
34506;BME280;20748;42.632;23.198;2023-02-11T11:53:12;93173.38;;;1.26;47.92
34506;BME280;20748;42.632;23.198;2023-02-11T11:55:50;93165.09;;;1.24;48.42
34506;BME280;20748;42.632;23.198;2023-02-11T11:58:31;93160.50;;;1.26;48.09
34506;BME280;20748;42.632;23.198;2023-02-11T12:01:17;93149.81;;;1.29;47.29
34506;BME280;20748;42.632;23.198;2023-02-11T12:04:12;93148.06;;;1.49;48.49
34506;BME280;20748;42.632;23.198;2023-02-11T12:06:59;93143.84;;;1.54;48.01
34506;BME280;20748;42.632;23.198;2023-02-11T12:09:41;93141.72;;;1.70;47.23
34506;BME280;20748;42.632;23.198;2023-02-11T12:12:23;93144.28;;;1.70;46.74
34506;BME280;20748;42.632;23.198;2023-02-11T12:15:10;93138.50;;;1.74;46.71
34506;BME280;20748;42.632;23.198;2023-02-11T12:17:54;93130.09;;;1.98;47.90
34506;BME280;20748;42.632;23.198;2023-02-11T12:20:37;93133.47;;;1.98;45.64
34506;BME280;20748;42.632;23.198;2023-02-11T12:23:32;93133.16;;;2.07;45.64
34506;BME280;20748;42.632;23.198;2023-02-11T12:26:13;93120.41;;;2.00;43.58
34506;BME280;20748;42.632;23.198;2023-02-11T12:28:52;93112.94;;;2.10;44.31
34506;BME280;20748;42.632;23.198;2023-02-11T12:31:39;93116.72;;;2.38;46.51
34506;BME280;20748;42.632;23.198;2023-02-11T12:34:29;93110.63;;;2.51;43.89
34506;BME280;20748;42.632;23.198;2023-02-11T12:37:16;93096.25;;;2.44;43.23
34506;BME280;20748;42.632;23.198;2023-02-11T12:39:54;93106.19;;;2.28;43.15
34506;BME280;20748;42.632;23.198;2023-02-11T12:42:43;93107.88;;;2.34;42.54
34506;BME280;20748;42.632;23.198;2023-02-11T12:45:48;93097.53;;;2.22;42.65
34506;BME280;20748;42.632;23.198;2023-02-11T12:48:35;93101.47;;;2.25;42.44
34506;BME280;20748;42.632;23.198;2023-02-11T12:51:19;93094.69;;;2.42;43.27
34506;BME280;20748;42.632;23.198;2023-02-11T12:54:13;93099.00;;;2.61;42.36
34506;BME280;20748;42.632;23.198;2023-02-11T12:56:51;93088.84;;;3.02;42.64
34506;BME280;20748;42.632;23.198;2023-02-11T12:59:33;93090.06;;;3.35;41.83
34506;BME280;20748;42.632;23.198;2023-02-11T13:02:22;93088.91;;;3.55;39.99
34506;BME280;20748;42.632;23.198;2023-02-11T13:05:02;93085.44;;;4.02;40.57
34506;BME280;20748;42.632;23.198;2023-02-11T13:07:38;93085.38;;;4.43;39.81
34506;BME280;20748;42.632;23.198;2023-02-11T13:10:23;93090.03;;;4.75;39.51
34506;BME280;20748;42.632;23.198;2023-02-11T13:12:58;93068.88;;;4.95;35.87
34506;BME280;20748;42.632;23.198;2023-02-11T13:15:52;93077.50;;;5.01;36.80
34506;BME280;20748;42.632;23.198;2023-02-11T13:18:33;93070.44;;;5.14;35.55
34506;BME280;20748;42.632;23.198;2023-02-11T13:21:22;93058.31;;;5.36;34.88
34506;BME280;20748;42.632;23.198;2023-02-11T13:24:05;93065.84;;;5.38;32.94
34506;BME280;20748;42.632;23.198;2023-02-11T13:26:43;93056.13;;;5.45;33.71
34506;BME280;20748;42.632;23.198;2023-02-11T13:29:30;93060.19;;;5.63;33.10
34506;BME280;20748;42.632;23.198;2023-02-11T13:32:07;93063.16;;;5.50;31.74
34506;BME280;20748;42.632;23.198;2023-02-11T13:34:54;93067.97;;;5.63;32.58
34506;BME280;20748;42.632;23.198;2023-02-11T13:37:31;93066.16;;;5.64;32.38
34506;BME280;20748;42.632;23.198;2023-02-11T13:40:20;93071.16;;;5.48;27.87
34506;BME280;20748;42.632;23.198;2023-02-11T13:42:54;93062.53;;;5.20;28.31
34506;BME280;20748;42.632;23.198;2023-02-11T13:45:29;93060.41;;;5.40;29.28